Time;durP1;ratioP1;P1;durP2;ratioP2;P2;SDS_P1;SDS_P2;PMS_P1;PMS_P2;Temp;Humidity;BMP_temperature;BMP_pressure;BME280_temperature;BME280_humidity;BME280_pressure;Samples;Min_cycle;Max_cycle;Signal;HPM_P1;HPM_P2
2022/05/16 00:02:13;;;;;;;12.65;3.78;;;;;;;;;;4981527;28;98650;-78
2022/05/16 00:04:42;;;;;;;12.13;3.88;;;;;;;;;;4981072;28;98882;-78
2022/05/16 00:07:08;;;;;;;11.85;4.13;;;;;;;;;;4974034;28;100927;-78
2022/05/16 00:09:35;;;;;;;12.10;3.63;;;;;;;;;;4979171;28;98786;-78
2022/05/16 00:12:02;;;;;;;11.70;4.07;;;;;;;;;;4982181;28;100089;-78
2022/05/16 00:14:28;;;;;;;10.00;3.85;;;;;;;;;;4977378;28;100225;-78
2022/05/16 00:16:54;;;;;;;10.35;3.97;;;;;;;;;;4978172;28;98578;-78
2022/05/16 00:19:21;;;;;;;12.82;3.53;;;;;;;;;;4979005;28;100216;-78
2022/05/16 00:21:47;;;;;;;10.50;3.53;;;;;;;;;;4982573;28;99496;-78
2022/05/16 00:24:14;;;;;;;12.35;3.95;;;;;;;;;;4981676;28;100208;-78
2022/05/16 00:26:40;;;;;;;10.30;3.40;;;;;;;;;;4980028;28;100646;-78
2022/05/16 00:29:07;;;;;;;11.70;4.35;;;;;;;;;;4996191;27;99541;-78
2022/05/16 00:31:35;;;;;;;13.93;3.55;;;;;;;;;;5017892;28;99836;-78
2022/05/16 00:34:02;;;;;;;14.80;4.05;;;;;;;;;;5017084;28;99583;-78
2022/05/16 00:36:28;;;;;;;12.95;3.70;;;;;;;;;;5012910;28;99525;-78
2022/05/16 00:38:54;;;;;;;14.25;3.80;;;;;;;;;;5020064;28;100109;-78
2022/05/16 00:41:21;;;;;;;11.80;3.55;;;;;;;;;;5019228;28;100245;-78
2022/05/16 00:43:53;;;;;;;11.75;4.55;;;;;;;;;;5020592;28;99000;-78
2022/05/16 00:46:20;;;;;;;6.25;3.90;;;;;;;;;;5016284;28;100316;-78
2022/05/16 00:48:47;;;;;;;16.13;4.07;;;;;;;;;;5017073;28;97859;-78
2022/05/16 00:51:33;;;;;;;10.65;3.63;;;;;;;;;;5017637;28;99949;-78
2022/05/16 00:54:08;;;;;;;12.45;3.83;;;;;;;;;;5018447;28;100450;-78
2022/05/16 00:56:35;;;;;;;8.90;3.53;;;;;;;;;;5014810;28;99708;-78
2022/05/16 00:59:01;;;;;;;11.73;3.65;;;;;;;;;;5018974;28;99755;-78
2022/05/16 01:06:59;;;;;;;9.68;3.97;;;;;;;;;;5022404;28;99889;-78
2022/05/16 01:09:25;;;;;;;15.77;4.25;;;;;;;;;;5017251;28;99866;-78
2022/05/16 01:11:52;;;;;;;10.40;3.65;;;;;;;;;;5020392;28;99900;-78
2022/05/16 01:14:39;;;;;;;12.00;4.20;;;;;;;;;;5016099;28;99915;-78
2022/05/16 01:17:05;;;;;;;10.13;4.07;;;;;;;;;;5018381;28;99134;-78
2022/05/16 01:19:31;;;;;;;8.88;3.50;;;;;;;;;;5018469;28;98709;-78
2022/05/16 01:22:09;;;;;;;11.90;4.10;;;;;;;;;;5017303;28;101049;-78
2022/05/16 01:24:35;;;;;;;8.25;3.85;;;;;;;;;;5015672;28;99615;-78
2022/05/16 01:27:01;;;;;;;11.13;4.30;;;;;;;;;;5019226;28;99988;-78
2022/05/16 01:29:28;;;;;;;12.80;4.22;;;;;;;;;;5020537;28;100128;-78
2022/05/16 01:31:54;;;;;;;8.98;3.83;;;;;;;;;;5018507;28;99968;-78
2022/05/16 01:34:21;;;;;;;9.52;4.00;;;;;;;;;;5017039;27;100061;-78
2022/05/16 01:36:48;;;;;;;15.65;4.95;;;;;;;;;;5018347;28;99797;-78
2022/05/16 01:39:15;;;;;;;8.15;4.10;;;;;;;;;;5019627;28;100468;-78
2022/05/16 01:41:41;;;;;;;12.73;3.78;;;;;;;;;;5017036;28;99535;-78
2022/05/16 01:44:07;;;;;;;12.93;4.78;;;;;;;;;;5017946;28;98579;-78
2022/05/16 01:46:40;;;;;;;9.32;4.25;;;;;;;;;;5021414;28;100030;-78
2022/05/16 01:49:08;;;;;;;12.25;3.80;;;;;;;;;;5020077;28;99126;-78
2022/05/16 01:51:35;;;;;;;9.73;4.43;;;;;;;;;;5027909;28;98647;-78
2022/05/16 01:54:03;;;;;;;12.68;3.95;;;;;;;;;;5022462;28;100655;-78
2022/05/16 01:56:31;;;;;;;14.05;4.85;;;;;;;;;;5019341;28;98606;-78
2022/05/16 01:58:58;;;;;;;12.75;5.13;;;;;;;;;;5019926;28;100308;-77
2022/05/16 02:01:25;;;;;;;14.75;5.20;;;;;;;;;;5020305;28;100107;-78
2022/05/16 02:03:52;;;;;;;15.38;4.63;;;;;;;;;;5020834;28;97880;-78
2022/05/16 02:06:18;;;;;;;11.30;4.63;;;;;;;;;;5022968;28;99799;-78
2022/05/16 02:08:45;;;;;;;10.13;4.15;;;;;;;;;;5021076;28;100339;-78
2022/05/16 02:11:11;;;;;;;7.18;3.42;;;;;;;;;;5027237;28;99378;-78
2022/05/16 02:13:38;;;;;;;11.40;3.85;;;;;;;;;;5017625;28;100313;-78
2022/05/16 02:16:05;;;;;;;12.55;4.75;;;;;;;;;;5018963;28;99911;-79
2022/05/16 02:18:31;;;;;;;16.65;5.05;;;;;;;;;;5022535;27;100289;-79
2022/05/16 02:26:29;;;;;;;12.60;4.30;;;;;;;;;;5020056;28;100412;-78
2022/05/16 02:28:56;;;;;;;12.13;4.65;;;;;;;;;;5020876;28;99454;-78
2022/05/16 02:31:22;;;;;;;15.25;4.97;;;;;;;;;;5019201;28;98722;-78
2022/05/16 02:33:49;;;;;;;9.48;3.88;;;;;;;;;;5021143;28;100689;-78
2022/05/16 02:36:15;;;;;;;15.00;3.85;;;;;;;;;;5020115;28;99293;-78
2022/05/16 02:38:42;;;;;;;13.98;3.92;;;;;;;;;;5023602;27;100732;-78
2022/05/16 02:41:08;;;;;;;7.88;3.97;;;;;;;;;;5018419;28;100265;-78
2022/05/16 02:43:34;;;;;;;13.18;4.20;;;;;;;;;;5020543;28;98622;-78
2022/05/16 02:46:01;;;;;;;11.10;3.97;;;;;;;;;;5022426;28;100291;-78
2022/05/16 02:48:27;;;;;;;8.68;4.10;;;;;;;;;;5015553;28;99615;-78
2022/05/16 02:50:53;;;;;;;15.88;4.28;;;;;;;;;;5016678;27;100467;-78
2022/05/16 02:53:20;;;;;;;8.02;4.20;;;;;;;;;;5021702;28;100018;-78
2022/05/16 02:55:46;;;;;;;13.40;5.55;;;;;;;;;;5022619;28;101800;-78
2022/05/16 02:58:12;;;;;;;9.18;4.18;;;;;;;;;;5020504;28;102213;-78
2022/05/16 03:00:40;;;;;;;15.00;5.38;;;;;;;;;;5017688;28;100972;-78
2022/05/16 03:03:06;;;;;;;11.20;4.80;;;;;;;;;;5018629;28;100366;-78
2022/05/16 03:05:32;;;;;;;13.07;4.72;;;;;;;;;;5017709;28;100158;-78
2022/05/16 03:07:59;;;;;;;10.52;4.78;;;;;;;;;;5020943;28;100535;-78
2022/05/16 03:10:26;;;;;;;15.40;5.18;;;;;;;;;;5019465;28;99885;-78
2022/05/16 03:12:53;;;;;;;14.38;4.55;;;;;;;;;;5017675;28;99634;-78
2022/05/16 03:15:19;;;;;;;13.25;4.45;;;;;;;;;;5018561;28;100131;-78
2022/05/16 03:17:47;;;;;;;14.02;5.00;;;;;;;;;;5023261;28;97871;-78
2022/05/16 03:20:14;;;;;;;12.65;4.88;;;;;;;;;;5019267;28;99684;-78
2022/05/16 03:22:41;;;;;;;10.32;4.60;;;;;;;;;;5017889;28;99074;-78
2022/05/16 03:25:08;;;;;;;9.30;3.95;;;;;;;;;;5019327;27;99874;-78
2022/05/16 03:27:34;;;;;;;15.15;5.07;;;;;;;;;;5019578;28;99304;-78
2022/05/16 03:30:01;;;;;;;15.25;4.80;;;;;;;;;;5016918;27;99627;-78
2022/05/16 03:32:27;;;;;;;13.85;4.88;;;;;;;;;;5022039;28;100020;-78
2022/05/16 03:34:54;;;;;;;8.65;4.20;;;;;;;;;;5018886;28;100065;-78
2022/05/16 03:37:21;;;;;;;13.85;4.40;;;;;;;;;;5021126;28;98562;-78
2022/05/16 03:42:33;;;;;;;13.63;5.10;;;;;;;;;;5015334;28;98263;-78
2022/05/16 03:44:59;;;;;;;9.40;4.55;;;;;;;;;;5020386;28;99317;-78
2022/05/16 03:47:26;;;;;;;14.32;4.35;;;;;;;;;;5020024;27;99610;-78
2022/05/16 03:49:52;;;;;;;14.63;4.35;;;;;;;;;;5018908;28;99646;-77
2022/05/16 03:52:19;;;;;;;16.88;6.25;;;;;;;;;;5018590;28;100308;-78
2022/05/16 03:54:45;;;;;;;10.82;4.68;;;;;;;;;;5015264;28;99398;-78
2022/05/16 03:57:11;;;;;;;11.25;4.30;;;;;;;;;;5020204;28;99897;-78
2022/05/16 03:59:38;;;;;;;14.23;5.22;;;;;;;;;;5018833;28;100465;-78
2022/05/16 04:02:05;;;;;;;11.57;4.18;;;;;;;;;;5020811;28;100606;-78
2022/05/16 04:04:32;;;;;;;14.50;4.22;;;;;;;;;;5020142;28;98794;-78
2022/05/16 04:06:58;;;;;;;17.58;5.05;;;;;;;;;;5018713;27;99768;-78
2022/05/16 04:09:24;;;;;;;8.65;4.25;;;;;;;;;;5018083;28;98628;-78
2022/05/16 04:11:51;;;;;;;11.85;4.65;;;;;;;;;;5018454;28;99966;-78
2022/05/16 04:14:17;;;;;;;12.80;4.22;;;;;;;;;;5017769;28;100991;-78
2022/05/16 04:16:43;;;;;;;14.88;4.70;;;;;;;;;;5021013;28;98756;-77
2022/05/16 04:19:10;;;;;;;10.05;4.85;;;;;;;;;;5015856;28;99945;-77
2022/05/16 04:21:38;;;;;;;9.68;5.65;;;;;;;;;;5019784;28;100274;-77
2022/05/16 04:24:05;;;;;;;16.85;4.68;;;;;;;;;;5020604;28;99909;-78
2022/05/16 04:26:31;;;;;;;9.43;4.05;;;;;;;;;;5017820;28;99318;-77
2022/05/16 04:28:58;;;;;;;11.85;4.72;;;;;;;;;;5018207;27;99964;-78
2022/05/16 04:31:25;;;;;;;12.35;4.53;;;;;;;;;;5018287;28;99889;-78
2022/05/16 04:33:51;;;;;;;9.90;4.30;;;;;;;;;;5015823;28;99313;-78
2022/05/16 04:36:17;;;;;;;10.35;5.00;;;;;;;;;;5019976;28;98686;-78
2022/05/16 04:38:44;;;;;;;11.10;3.97;;;;;;;;;;5016245;28;100906;-78
2022/05/16 04:44:06;;;;;;;13.27;4.30;;;;;;;;;;4984737;28;98844;-78
2022/05/16 04:46:32;;;;;;;12.43;4.50;;;;;;;;;;5017653;28;100230;-74
2022/05/16 04:48:59;;;;;;;8.43;3.55;;;;;;;;;;5017208;28;98718;-75
2022/05/16 04:51:25;;;;;;;8.85;4.15;;;;;;;;;;5010775;28;99874;-75
2022/05/16 04:53:52;;;;;;;15.38;4.72;;;;;;;;;;5015698;28;100250;-75
2022/05/16 04:56:18;;;;;;;11.48;4.38;;;;;;;;;;5016729;28;99018;-75
2022/05/16 04:58:45;;;;;;;8.45;4.18;;;;;;;;;;5017310;28;99069;-74
2022/05/16 05:01:11;;;;;;;8.63;4.43;;;;;;;;;;5012286;28;100275;-74
2022/05/16 05:03:38;;;;;;;15.82;4.50;;;;;;;;;;5017068;28;100087;-74
2022/05/16 05:06:05;;;;;;;6.90;4.03;;;;;;;;;;5014635;28;102422;-75
2022/05/16 05:08:31;;;;;;;11.75;4.55;;;;;;;;;;5019166;28;100019;-74
2022/05/16 05:16:47;;;;;;;10.48;4.53;;;;;;;;;;4957989;28;98658;-73
2022/05/16 05:19:13;;;;;;;14.88;4.70;;;;;;;;;;4991264;28;99391;-74
2022/05/16 05:21:39;;;;;;;15.10;4.82;;;;;;;;;;5013957;28;99647;-74
2022/05/16 05:24:07;;;;;;;23.88;5.47;;;;;;;;;;5017334;27;99188;-76
2022/05/16 05:26:33;;;;;;;19.08;5.20;;;;;;;;;;5010847;28;99048;-75
2022/05/16 05:28:59;;;;;;;14.75;4.30;;;;;;;;;;5015355;27;99978;-76
2022/05/16 05:31:26;;;;;;;8.95;4.47;;;;;;;;;;5022933;27;100658;-73
2022/05/16 05:33:53;;;;;;;15.23;4.88;;;;;;;;;;5020357;28;100171;-73
2022/05/16 05:36:19;;;;;;;7.85;4.38;;;;;;;;;;5023105;27;99144;-73
2022/05/16 05:38:51;;;;;;;16.95;5.28;;;;;;;;;;5015305;28;100275;-73
2022/05/16 05:41:18;;;;;;;10.47;4.90;;;;;;;;;;5019484;28;100255;-73
2022/05/16 05:43:44;;;;;;;13.27;4.88;;;;;;;;;;5008148;28;100287;-73
2022/05/16 05:46:10;;;;;;;13.70;5.22;;;;;;;;;;5018493;28;99918;-73
2022/05/16 05:48:37;;;;;;;16.13;5.30;;;;;;;;;;5025763;28;100116;-73
2022/05/16 05:51:03;;;;;;;15.63;4.90;;;;;;;;;;5024497;28;99319;-73
2022/05/16 05:53:30;;;;;;;13.75;5.07;;;;;;;;;;5022715;28;100991;-73
2022/05/16 05:55:56;;;;;;;21.50;5.05;;;;;;;;;;5023474;27;98653;-74
2022/05/16 05:58:23;;;;;;;12.10;4.63;;;;;;;;;;5022889;28;99546;-74
2022/05/16 06:00:49;;;;;;;14.35;5.53;;;;;;;;;;5019747;28;102271;-74
2022/05/16 06:03:16;;;;;;;16.70;4.85;;;;;;;;;;5019844;28;98703;-74
2022/05/16 06:05:44;;;;;;;15.88;5.43;;;;;;;;;;5016494;28;100449;-72
2022/05/16 06:08:11;;;;;;;11.27;5.40;;;;;;;;;;5018792;27;100422;-76
2022/05/16 06:10:38;;;;;;;14.82;4.57;;;;;;;;;;5022252;28;97993;-74
2022/05/16 06:13:05;;;;;;;16.67;4.97;;;;;;;;;;5024082;28;99677;-74
2022/05/16 06:15:31;;;;;;;10.30;5.05;;;;;;;;;;5019454;28;100029;-77
2022/05/16 06:17:57;;;;;;;17.48;5.70;;;;;;;;;;5020493;28;100431;-71
2022/05/16 06:20:24;;;;;;;11.57;5.22;;;;;;;;;;5022420;27;100541;-73
2022/05/16 06:22:50;;;;;;;19.45;5.53;;;;;;;;;;5024983;28;100058;-72
2022/05/16 06:28:06;;;;;;;9.52;4.75;;;;;;;;;;5024669;28;99548;-72
2022/05/16 06:30:33;;;;;;;11.13;5.20;;;;;;;;;;5024783;28;98555;-72
2022/05/16 06:32:59;;;;;;;25.63;6.57;;;;;;;;;;5028221;28;99900;-72
2022/05/16 06:35:26;;;;;;;29.45;7.97;;;;;;;;;;5020463;27;98882;-72
2022/05/16 06:37:52;;;;;;;43.28;7.72;;;;;;;;;;5018660;28;98504;-72
2022/05/16 06:40:20;;;;;;;37.50;6.65;;;;;;;;;;5023107;28;99365;-72
2022/05/16 06:42:46;;;;;;;16.17;4.75;;;;;;;;;;5021527;27;100911;-73
2022/05/16 06:45:13;;;;;;;13.93;5.22;;;;;;;;;;5025751;28;100668;-73
2022/05/16 06:47:40;;;;;;;10.00;4.55;;;;;;;;;;5022760;28;100415;-73
2022/05/16 06:50:07;;;;;;;10.05;4.22;;;;;;;;;;5024191;28;98791;-74
2022/05/16 06:52:33;;;;;;;13.68;4.60;;;;;;;;;;5023664;28;99077;-72
2022/05/16 06:55:01;;;;;;;11.85;4.72;;;;;;;;;;5025752;27;99967;-73
2022/05/16 06:57:27;;;;;;;21.17;4.50;;;;;;;;;;5024120;28;100269;-72
2022/05/16 06:59:54;;;;;;;7.22;4.20;;;;;;;;;;5025471;28;99552;-72
2022/05/16 07:02:20;;;;;;;8.82;4.15;;;;;;;;;;5019553;28;98680;-72
2022/05/16 07:04:46;;;;;;;14.32;4.47;;;;;;;;;;5025862;28;99990;-72
2022/05/16 07:07:13;;;;;;;12.18;4.35;;;;;;;;;;5023052;28;100691;-72
2022/05/16 07:09:39;;;;;;;12.45;4.22;;;;;;;;;;5023201;28;98838;-75
2022/05/16 07:12:07;;;;;;;9.82;4.63;;;;;;;;;;5022369;28;100757;-75
2022/05/16 07:14:34;;;;;;;16.25;5.32;;;;;;;;;;5021575;28;100220;-75
2022/05/16 07:17:01;;;;;;;8.70;4.68;;;;;;;;;;5028819;28;98682;-76
2022/05/16 07:19:31;;;;;;;17.05;5.88;;;;;;;;;;5025224;28;100276;-76
2022/05/16 07:21:58;;;;;;;9.60;5.13;;;;;;;;;;5017654;28;100652;-75
2022/05/16 07:24:25;;;;;;;12.13;4.80;;;;;;;;;;5021834;28;99364;-76
2022/05/16 07:29:36;;;;;;;10.43;5.45;;;;;;;;;;5023504;28;99110;-75
2022/05/16 07:32:03;;;;;;;14.15;6.00;;;;;;;;;;5023168;28;100037;-75
2022/05/16 07:34:29;;;;;;;17.58;6.50;;;;;;;;;;5021829;28;100292;-75
2022/05/16 07:36:56;;;;;;;14.00;5.93;;;;;;;;;;5021490;27;99795;-75
2022/05/16 07:39:24;;;;;;;10.55;4.55;;;;;;;;;;5022730;28;99921;-76
2022/05/16 07:41:52;;;;;;;13.80;6.20;;;;;;;;;;5024407;27;100096;-75
2022/05/16 07:44:18;;;;;;;13.95;5.40;;;;;;;;;;5020766;28;100467;-75
2022/05/16 07:46:45;;;;;;;12.02;5.40;;;;;;;;;;5023970;28;100907;-75
2022/05/16 07:49:13;;;;;;;15.00;5.85;;;;;;;;;;5025176;28;97922;-75
2022/05/16 07:51:40;;;;;;;19.10;6.30;;;;;;;;;;5023511;28;99599;-75
2022/05/16 07:54:08;;;;;;;13.02;5.53;;;;;;;;;;5021491;28;100324;-76
2022/05/16 07:56:34;;;;;;;13.57;5.07;;;;;;;;;;5024389;28;99511;-74
2022/05/16 07:59:02;;;;;;;17.45;5.20;;;;;;;;;;5022809;28;99607;-75
2022/05/16 08:01:29;;;;;;;10.10;4.63;;;;;;;;;;5026508;28;100382;-73
2022/05/16 08:03:56;;;;;;;13.63;4.88;;;;;;;;;;5021901;28;99104;-73
2022/05/16 08:06:26;;;;;;;12.20;4.88;;;;;;;;;;5023152;28;99794;-73
2022/05/16 08:11:38;;;;;;;16.27;6.45;;;;;;;;;;5022546;28;99029;-75
2022/05/16 08:14:05;;;;;;;14.38;5.80;;;;;;;;;;5023434;28;99509;-76
2022/05/16 08:16:31;;;;;;;21.25;6.28;;;;;;;;;;5022972;28;98715;-76
2022/05/16 08:18:58;;;;;;;14.18;5.60;;;;;;;;;;5023917;28;99921;-76
2022/05/16 08:21:24;;;;;;;21.33;6.43;;;;;;;;;;5022593;28;101024;-76
2022/05/16 08:23:51;;;;;;;23.75;5.43;;;;;;;;;;5025611;28;98584;-76
2022/05/16 08:26:17;;;;;;;9.75;5.43;;;;;;;;;;5022981;28;100349;-75
2022/05/16 08:28:44;;;;;;;13.88;6.10;;;;;;;;;;5022418;28;99187;-75
2022/05/16 08:31:10;;;;;;;12.00;6.20;;;;;;;;;;5022566;28;99917;-75
2022/05/16 08:33:38;;;;;;;12.15;6.18;;;;;;;;;;5019714;28;99438;-76
2022/05/16 08:41:39;;;;;;;13.32;5.85;;;;;;;;;;5022115;28;100722;-76
2022/05/16 08:44:07;;;;;;;;;;;;;;;;;;5026418;28;99738;-76
2022/05/16 08:46:33;;;;;;;17.52;5.78;;;;;;;;;;5023181;28;100350;-76
2022/05/16 08:49:23;;;;;;;20.63;5.63;;;;;;;;;;5021116;27;99603;-76
2022/05/16 08:51:52;;;;;;;12.90;6.05;;;;;;;;;;5021693;28;100246;-76
2022/05/16 08:54:21;;;;;;;11.93;5.53;;;;;;;;;;5022654;28;100190;-76
2022/05/16 08:56:48;;;;;;;15.20;5.55;;;;;;;;;;5022102;28;98945;-76
2022/05/16 08:59:14;;;;;;;10.32;4.70;;;;;;;;;;5022591;28;100629;-76
2022/05/16 09:02:07;;;;;;;35.45;5.70;;;;;;;;;;5021578;28;101619;-76
2022/05/16 09:04:43;;;;;;;22.95;5.65;;;;;;;;;;5021879;28;97896;-76
2022/05/16 09:07:15;;;;;;;11.30;5.93;;;;;;;;;;5025002;28;101309;-75
2022/05/16 09:09:45;;;;;;;15.98;6.82;;;;;;;;;;5021494;28;98677;-76
2022/05/16 09:12:27;;;;;;;11.45;5.63;;;;;;;;;;5017400;28;100674;-77
2022/05/16 09:15:12;;;;;;;15.68;6.32;;;;;;;;;;5022550;27;100102;-76
2022/05/16 09:17:58;;;;;;;18.70;6.05;;;;;;;;;;5021391;28;99157;-75
2022/05/16 09:20:42;;;;;;;17.50;7.82;;;;;;;;;;5020781;28;99878;-76
2022/05/16 09:23:22;;;;;;;10.68;4.97;;;;;;;;;;5020746;28;99456;-76
2022/05/16 09:25:52;;;;;;;11.05;5.80;;;;;;;;;;5022907;28;98660;-76
2022/05/16 09:28:34;;;;;;;14.13;5.53;;;;;;;;;;5022385;28;99626;-77
2022/05/16 09:31:05;;;;;;;9.57;4.63;;;;;;;;;;5026306;28;99371;-77
2022/05/16 09:33:32;;;;;;;8.98;4.55;;;;;;;;;;5021608;28;98708;-77
2022/05/16 09:36:00;;;;;;;9.40;4.90;;;;;;;;;;5012628;28;100524;-77
2022/05/16 09:38:27;;;;;;;5.22;3.92;;;;;;;;;;5021557;28;99390;-77
2022/05/16 09:41:03;;;;;;;11.43;4.07;;;;;;;;;;5022151;28;100740;-77
2022/05/16 09:43:34;;;;;;;9.48;4.45;;;;;;;;;;5016549;28;100271;-77
2022/05/16 09:46:03;;;;;;;8.65;3.97;;;;;;;;;;5016321;28;98583;-77
2022/05/16 09:48:29;;;;;;;11.93;4.60;;;;;;;;;;5022285;28;100292;-77
2022/05/16 09:50:57;;;;;;;13.73;3.92;;;;;;;;;;5020689;28;100153;-78
2022/05/16 09:53:32;;;;;;;16.45;4.00;;;;;;;;;;5024770;28;99099;-75
2022/05/16 09:56:03;;;;;;;9.43;3.72;;;;;;;;;;5021357;28;99425;-76
2022/05/16 09:58:45;;;;;;;11.07;3.53;;;;;;;;;;5019862;28;99439;-75
2022/05/16 10:01:13;;;;;;;10.63;3.45;;;;;;;;;;5025590;28;100078;-76
2022/05/16 10:03:42;;;;;;;4.32;3.17;;;;;;;;;;5020668;28;100105;-75
2022/05/16 10:06:25;;;;;;;8.55;3.05;;;;;;;;;;5025856;28;98732;-76
2022/05/16 10:08:52;;;;;;;6.20;3.05;;;;;;;;;;5023670;28;99263;-76
2022/05/16 10:11:22;;;;;;;7.15;2.72;;;;;;;;;;5024667;28;99516;-77
2022/05/16 10:13:48;;;;;;;4.75;2.90;;;;;;;;;;5023013;28;99683;-77
2022/05/16 10:16:15;;;;;;;8.73;2.92;;;;;;;;;;5028870;28;99930;-77
2022/05/16 10:18:44;;;;;;;11.82;2.97;;;;;;;;;;5024344;28;99648;-76
2022/05/16 10:21:15;;;;;;;10.02;2.63;;;;;;;;;;5025907;28;99345;-76
2022/05/16 10:23:42;;;;;;;23.35;3.50;;;;;;;;;;5023074;28;100268;-76
2022/05/16 10:26:12;;;;;;;6.63;2.50;;;;;;;;;;5023868;28;98655;-76
2022/05/16 10:28:40;;;;;;;5.05;2.53;;;;;;;;;;5024194;28;100653;-76
2022/05/16 10:33:59;;;;;;;8.55;3.35;;;;;;;;;;5024380;28;99518;-77
2022/05/16 10:36:26;;;;;;;9.13;2.97;;;;;;;;;;5027672;28;100022;-77
2022/05/16 10:38:58;;;;;;;14.95;2.50;;;;;;;;;;5022886;28;99971;-77
2022/05/16 10:41:25;;;;;;;;;;;;;;;;;;5023730;28;100247;-77
2022/05/16 10:44:11;;;;;;;7.20;3.58;;;;;;;;;;5026414;28;130591;-77
2022/05/16 10:46:39;;;;;;;13.95;3.95;;;;;;;;;;5023991;28;99176;-77
2022/05/16 10:49:09;;;;;;;6.97;3.65;;;;;;;;;;5025334;28;99109;-77
2022/05/16 10:51:42;;;;;;;11.60;4.60;;;;;;;;;;5022839;28;100434;-76
2022/05/16 10:54:15;;;;;;;10.68;4.57;;;;;;;;;;5022402;28;100877;-76
2022/05/16 10:57:02;;;;;;;17.23;4.35;;;;;;;;;;5025115;28;100748;-75
2022/05/16 10:59:47;;;;;;;8.38;4.63;;;;;;;;;;5021782;28;99791;-76
2022/05/16 11:02:33;;;;;;;15.55;5.70;;;;;;;;;;5024008;28;100179;-75
2022/05/16 11:05:19;;;;;;;13.35;5.50;;;;;;;;;;5024698;28;99267;-75
2022/05/16 11:07:46;;;;;;;11.05;5.28;;;;;;;;;;5009014;28;99047;-75
2022/05/16 11:10:16;;;;;;;12.82;5.75;;;;;;;;;;5024695;28;100025;-77
2022/05/16 11:13:00;;;;;;;12.27;5.00;;;;;;;;;;5022998;28;99560;-75
2022/05/16 11:16:05;;;;;;;13.10;5.45;;;;;;;;;;5023945;27;98815;-75
2022/05/16 11:18:41;;;;;;;9.63;4.80;;;;;;;;;;4945627;28;99940;-74
2022/05/16 11:21:18;;;;;;;6.22;4.72;;;;;;;;;;4945249;28;101898;-75
2022/05/16 11:23:48;;;;;;;6.55;2.92;;;;;;;;;;4995442;28;98794;-75
2022/05/16 11:26:21;;;;;;;11.75;3.55;;;;;;;;;;5024774;28;100217;-76
2022/05/16 11:31:44;;;;;;;3.77;3.00;;;;;;;;;;5023204;28;100002;-75
2022/05/16 11:34:16;;;;;;;11.23;3.78;;;;;;;;;;5023049;28;100228;-76
2022/05/16 11:36:50;;;;;;;10.68;3.55;;;;;;;;;;5024013;28;99680;-76
2022/05/16 11:39:29;;;;;;;10.60;3.47;;;;;;;;;;5024409;28;99982;-75
2022/05/16 11:42:01;;;;;;;9.82;3.92;;;;;;;;;;5021107;28;100304;-76
2022/05/16 11:44:55;;;;;;;19.80;4.10;;;;;;;;;;5023090;28;99101;-77
2022/05/16 11:47:46;;;;;;;14.38;4.18;;;;;;;;;;5026129;28;99889;-75
2022/05/16 11:50:38;;;;;;;12.50;4.22;;;;;;;;;;5022374;27;99694;-75
2022/05/16 11:53:22;;;;;;;7.40;3.63;;;;;;;;;;5023831;28;100240;-75
2022/05/16 12:01:35;;;;;;;5.18;2.88;;;;;;;;;;5020535;28;100326;-76
2022/05/16 12:04:13;;;;;;;5.07;2.58;;;;;;;;;;5022299;28;100352;-79
2022/05/16 12:06:40;;;;;;;3.92;2.80;;;;;;;;;;5022262;28;97879;-79
2022/05/16 12:09:16;;;;;;;7.88;2.92;;;;;;;;;;5019366;27;100183;-75
2022/05/16 12:11:56;;;;;;;6.05;3.10;;;;;;;;;;5024242;28;100412;-75
2022/05/16 12:14:34;;;;;;;10.35;3.95;;;;;;;;;;5023442;28;99864;-75
2022/05/16 12:17:05;;;;;;;7.15;3.75;;;;;;;;;;5021417;28;100256;-75
2022/05/16 12:19:42;;;;;;;6.00;3.97;;;;;;;;;;5023545;28;98690;-75
2022/05/16 12:22:11;;;;;;;12.55;3.92;;;;;;;;;;5020300;28;100106;-75
2022/05/16 12:24:52;;;;;;;5.72;4.43;;;;;;;;;;5023852;28;99525;-75
2022/05/16 12:27:26;;;;;;;6.20;4.45;;;;;;;;;;5023255;28;99121;-75
2022/05/16 12:29:56;;;;;;;8.63;5.30;;;;;;;;;;5023546;28;100024;-75
2022/05/16 12:32:29;;;;;;;7.22;5.40;;;;;;;;;;5021494;28;99680;-75
2022/05/16 12:35:06;;;;;;;9.50;6.05;;;;;;;;;;5026455;28;99941;-75
2022/05/16 12:37:33;;;;;;;11.35;6.70;;;;;;;;;;5023350;28;100531;-75
2022/05/16 12:40:00;;;;;;;11.68;7.82;;;;;;;;;;5021796;28;100643;-75
2022/05/16 12:42:45;;;;;;;12.65;8.38;;;;;;;;;;5023410;28;100683;-75
2022/05/16 12:45:14;;;;;;;17.17;7.85;;;;;;;;;;5020974;28;100706;-75
2022/05/16 12:47:53;;;;;;;14.27;9.75;;;;;;;;;;5020761;28;98633;-76
2022/05/16 12:50:38;;;;;;;16.50;10.73;;;;;;;;;;5021655;28;100255;-77
2022/05/16 12:53:31;;;;;;;14.30;11.38;;;;;;;;;;5011495;28;100198;-76
2022/05/16 12:56:05;;;;;;;25.25;12.43;;;;;;;;;;5025111;28;100244;-76
2022/05/16 12:58:37;;;;;;;13.80;11.10;;;;;;;;;;5019730;28;99037;-76
2022/05/16 13:01:26;;;;;;;24.20;11.00;;;;;;;;;;5015452;28;98630;-81
2022/05/16 13:03:59;;;;;;;12.73;9.82;;;;;;;;;;5021034;28;99955;-76
2022/05/16 13:06:28;;;;;;;10.48;7.45;;;;;;;;;;5018598;28;100609;-73
2022/05/16 13:09:01;;;;;;;11.55;7.22;;;;;;;;;;5023671;28;99839;-74
2022/05/16 13:11:53;;;;;;;16.17;7.40;;;;;;;;;;5016855;28;99775;-74
2022/05/16 13:14:25;;;;;;;13.63;7.13;;;;;;;;;;5019231;28;100260;-75
2022/05/16 13:16:53;;;;;;;10.57;6.60;;;;;;;;;;5023946;28;99851;-76
2022/05/16 13:19:23;;;;;;;10.70;7.28;;;;;;;;;;5025057;28;99982;-74
2022/05/16 13:21:53;;;;;;;18.92;6.70;;;;;;;;;;5021118;28;99536;-72
2022/05/16 13:24:20;;;;;;;12.68;5.32;;;;;;;;;;5021754;28;100078;-73
2022/05/16 13:29:59;;;;;;;18.80;7.43;;;;;;;;;;5019724;28;98713;-78
2022/05/16 13:32:29;;;;;;;13.32;6.38;;;;;;;;;;5021824;28;101039;-76
2022/05/16 13:34:56;;;;;;;11.35;7.18;;;;;;;;;;5019792;27;100313;-76
2022/05/16 13:37:24;;;;;;;15.48;6.70;;;;;;;;;;5020784;28;98570;-77
2022/05/16 13:40:01;;;;;;;14.80;7.68;;;;;;;;;;5026149;28;100379;-77
2022/05/16 13:42:29;;;;;;;17.63;7.30;;;;;;;;;;5023134;28;100212;-75
2022/05/16 13:44:56;;;;;;;12.75;8.15;;;;;;;;;;5021711;28;100066;-74
2022/05/16 13:47:23;;;;;;;14.23;6.72;;;;;;;;;;5023342;28;100142;-74
2022/05/16 13:49:50;;;;;;;17.88;7.95;;;;;;;;;;5026874;27;97999;-75
2022/05/16 13:52:24;;;;;;;16.38;8.23;;;;;;;;;;5023856;28;98588;-75
2022/05/16 13:54:51;;;;;;;11.95;7.40;;;;;;;;;;5022533;28;100020;-77
2022/05/16 13:57:22;;;;;;;10.57;7.38;;;;;;;;;;5021677;28;99419;-77
2022/05/16 14:00:06;;;;;;;12.65;7.40;;;;;;;;;;5020998;28;100150;-76
2022/05/16 14:02:35;;;;;;;14.38;7.47;;;;;;;;;;5017637;28;99801;-74
2022/05/16 14:05:10;;;;;;;11.50;7.13;;;;;;;;;;5026648;28;98617;-75
2022/05/16 14:07:37;;;;;;;18.80;7.25;;;;;;;;;;5025071;28;100249;-76
2022/05/16 14:10:14;;;;;;;23.75;7.97;;;;;;;;;;5024377;28;98615;-75
2022/05/16 14:12:46;;;;;;;16.80;7.18;;;;;;;;;;5024263;28;100971;-76
2022/05/16 14:15:18;;;;;;;18.58;7.65;;;;;;;;;;5025046;28;99543;-76
2022/05/16 14:18:03;;;;;;;17.90;6.15;;;;;;;;;;5022593;28;98647;-74
2022/05/16 14:20:38;;;;;;;13.55;6.20;;;;;;;;;;5022976;28;98984;-75
2022/05/16 14:23:12;;;;;;;17.10;6.82;;;;;;;;;;5021515;28;101390;-75
2022/05/16 14:25:40;;;;;;;13.93;5.28;;;;;;;;;;5012201;28;98602;-76
2022/05/16 14:28:18;;;;;;;13.15;5.80;;;;;;;;;;4999293;28;101882;-75
2022/05/16 14:30:57;;;;;;;13.57;4.40;;;;;;;;;;5017678;28;100533;-75
2022/05/16 14:33:25;;;;;;;8.65;4.15;;;;;;;;;;5022654;28;100367;-75
2022/05/16 14:36:03;;;;;;;13.90;3.88;;;;;;;;;;5022786;28;100304;-74
2022/05/16 14:38:38;;;;;;;11.57;4.32;;;;;;;;;;5016564;28;100426;-73
2022/05/16 14:41:06;;;;;;;12.77;3.58;;;;;;;;;;5024248;28;99830;-73
2022/05/16 14:43:37;;;;;;;10.00;3.53;;;;;;;;;;5015618;28;99688;-73
2022/05/16 14:48:53;;;;;;;9.00;3.22;;;;;;;;;;5017660;28;99988;-73
2022/05/16 14:51:25;;;;;;;5.40;2.90;;;;;;;;;;5027281;28;100276;-74
2022/05/16 14:53:52;;;;;;;;;;;;;;;;;;5020866;28;99943;-73
2022/05/16 14:56:18;;;;;;;7.70;2.40;;;;;;;;;;5018000;28;130105;-74
2022/05/16 14:58:45;;;;;;;4.53;2.65;;;;;;;;;;5016443;28;100302;-73
2022/05/16 15:04:05;;;;;;;10.43;3.53;;;;;;;;;;5017887;28;100234;-72
2022/05/16 15:06:42;;;;;;;11.82;3.33;;;;;;;;;;5019922;28;99159;-72
2022/05/16 15:09:10;;;;;;;7.60;3.92;;;;;;;;;;5024448;28;99226;-73
2022/05/16 15:11:40;;;;;;;6.28;3.15;;;;;;;;;;5010230;28;101950;-73
2022/05/16 15:14:06;;;;;;;10.65;3.28;;;;;;;;;;5017265;28;101314;-73
2022/05/16 15:16:33;;;;;;;13.68;3.22;;;;;;;;;;5021027;28;100566;-75
2022/05/16 15:19:00;;;;;;;11.05;3.20;;;;;;;;;;5023563;27;98639;-75
2022/05/16 15:21:27;;;;;;;12.93;3.90;;;;;;;;;;5017781;28;100204;-73
2022/05/16 15:23:53;;;;;;;8.35;2.92;;;;;;;;;;5019726;28;98673;-74
2022/05/16 15:26:20;;;;;;;10.43;2.97;;;;;;;;;;5023897;28;98561;-73
2022/05/16 15:28:46;;;;;;;9.90;3.75;;;;;;;;;;5022166;27;101221;-75
2022/05/16 15:31:13;;;;;;;6.57;2.80;;;;;;;;;;5018333;28;99450;-75
2022/05/16 15:33:40;;;;;;;7.13;2.72;;;;;;;;;;5021774;28;98582;-74
2022/05/16 15:36:07;;;;;;;5.70;2.92;;;;;;;;;;5020349;28;101168;-74
2022/05/16 15:38:33;;;;;;;11.10;3.03;;;;;;;;;;5018962;28;100866;-72
2022/05/16 15:41:00;;;;;;;8.82;3.65;;;;;;;;;;5021457;28;100919;-72